createdAt,value
2018-04-11T00:01:26.320Z,-4.50
2018-04-11T00:03:53.015Z,-4.50
2018-04-11T00:06:19.699Z,-4.50
2018-04-11T00:08:47.104Z,-4.50
2018-04-11T00:11:13.838Z,-4.50
2018-04-11T00:13:40.578Z,-4.40
2018-04-11T00:16:07.429Z,-4.50
2018-04-11T00:18:34.176Z,-4.50
2018-04-11T00:21:00.856Z,-4.50
2018-04-11T00:23:27.671Z,-4.50
2018-04-11T00:25:54.828Z,-4.40
2018-04-11T00:28:21.505Z,-4.50
2018-04-11T00:30:48.265Z,-4.50
2018-04-11T00:33:15.718Z,-4.50
2018-04-11T00:35:42.413Z,-4.50
2018-04-11T00:38:09.246Z,-4.60
2018-04-11T00:40:35.971Z,-4.60
2018-04-11T00:43:03.476Z,-4.60
2018-04-11T00:45:30.187Z,-4.60
2018-04-11T00:47:56.899Z,-4.50
2018-04-11T00:50:23.613Z,-4.50
2018-04-11T00:53:02.507Z,-4.60
2018-04-11T00:55:29.159Z,-4.60
2018-04-11T00:57:55.825Z,-4.60
2018-04-11T01:00:22.517Z,-4.70
2018-04-11T01:02:49.920Z,-4.70
2018-04-11T01:05:16.642Z,-4.80
2018-04-11T01:07:43.302Z,-4.70
2018-04-11T01:10:10.030Z,-4.80
2018-04-11T01:12:37.501Z,-5.00
2018-04-11T01:15:04.946Z,-5.10
2018-04-11T01:17:32.452Z,-5.10
2018-04-11T01:19:59.203Z,-5.10
2018-04-11T01:22:26.354Z,-5.10
2018-04-11T01:24:53.014Z,-5.20
2018-04-11T01:27:19.683Z,-5.20
2018-04-11T01:29:47.859Z,-5.10
2018-04-11T01:32:14.669Z,-5.10
2018-04-11T01:34:41.391Z,-5.20
2018-04-11T01:37:08.163Z,-5.20
2018-04-11T01:39:34.907Z,-5.20
2018-04-11T01:42:01.962Z,-5.30
2018-04-11T01:44:28.646Z,-5.30
2018-04-11T01:46:56.169Z,-5.30
2018-04-11T01:49:23.026Z,-5.40
2018-04-11T01:51:49.765Z,-5.40
2018-04-11T01:54:16.442Z,-5.40
2018-04-11T01:56:43.176Z,-5.50
2018-04-11T01:59:09.904Z,-5.30
2018-04-11T02:01:36.607Z,-5.40
2018-04-11T02:04:04.318Z,-5.50
2018-04-11T02:06:31.064Z,-5.50
2018-04-11T02:08:57.759Z,-5.50
2018-04-11T02:11:25.274Z,-5.50
2018-04-11T02:13:52.020Z,-5.50
2018-04-11T02:16:19.071Z,-5.50
2018-04-11T02:18:45.819Z,-5.60
2018-04-11T02:21:12.564Z,-5.60
2018-04-11T02:23:39.334Z,-5.60
2018-04-11T02:26:06.322Z,-5.70
2018-04-11T02:28:33.824Z,-5.70
2018-04-11T02:31:00.550Z,-5.70
2018-04-11T02:33:27.420Z,-5.80
2018-04-11T02:35:54.165Z,-5.70
2018-04-11T02:38:20.916Z,-5.70
2018-04-11T02:40:47.765Z,-5.70
2018-04-11T02:43:14.510Z,-5.80
2018-04-11T02:45:41.358Z,-5.80
2018-04-11T02:48:08.104Z,-5.80
2018-04-11T02:50:34.838Z,-5.80
2018-04-11T02:53:01.600Z,-5.90
2018-04-11T02:55:28.257Z,-6.00
2018-04-11T02:57:55.085Z,-6.00
2018-04-11T03:00:21.833Z,-6.00
2018-04-11T03:02:48.524Z,-6.00
2018-04-11T03:05:15.973Z,-6.10
2018-04-11T03:07:42.693Z,-6.10
2018-04-11T03:10:09.389Z,-6.10
2018-04-11T03:12:36.895Z,-6.20
2018-04-11T03:15:03.848Z,-6.30
2018-04-11T03:17:30.528Z,-6.20
2018-04-11T03:19:57.201Z,-6.20
2018-04-11T03:22:24.644Z,-6.20
2018-04-11T03:24:52.094Z,-6.20
2018-04-11T03:27:19.726Z,-6.20
2018-04-11T03:29:46.472Z,-6.30
2018-04-11T03:32:13.219Z,-6.30
2018-04-11T03:34:40.889Z,-6.30
2018-04-11T03:37:07.591Z,-6.40
2018-04-11T03:39:35.002Z,-6.30
2018-04-11T03:42:01.724Z,-6.30
2018-04-11T03:44:28.737Z,-6.30
2018-04-11T03:46:55.409Z,-6.30
2018-04-11T03:49:22.086Z,-6.30
2018-04-11T03:51:48.822Z,-6.30
2018-04-11T03:54:15.523Z,-6.20
2018-04-11T03:56:42.975Z,-6.20
2018-04-11T03:59:10.499Z,-6.20
2018-04-11T04:01:38.019Z,-6.20
2018-04-11T04:04:04.988Z,-6.10
2018-04-11T04:06:31.823Z,-6.10
2018-04-11T04:08:59.241Z,-6.00
2018-04-11T04:11:25.929Z,-6.00
2018-04-11T04:14:05.492Z,-5.90
2018-04-11T04:16:44.317Z,-5.90
2018-04-11T04:19:38.014Z,-5.90
2018-04-11T04:22:04.702Z,-5.90
2018-04-11T04:24:31.371Z,-5.80
2018-04-11T04:26:58.225Z,-5.70
2018-04-11T04:29:24.971Z,-5.70
2018-04-11T04:31:52.434Z,-5.60
2018-04-11T04:34:19.285Z,-5.70
2018-04-11T04:36:46.773Z,-5.60
2018-04-11T04:39:13.569Z,-5.60
2018-04-11T04:41:40.219Z,-5.50
2018-04-11T04:44:07.290Z,-5.30
2018-04-11T04:46:34.139Z,-5.40
2018-04-11T04:49:01.295Z,-5.30
2018-04-11T04:51:27.992Z,-5.20
2018-04-11T04:53:54.758Z,-5.20
2018-04-11T04:56:21.541Z,-5.10
2018-04-11T04:58:48.278Z,-5.00
2018-04-11T05:01:15.025Z,-4.90
2018-04-11T05:03:41.746Z,-4.70
2018-04-11T05:06:08.516Z,-4.50
2018-04-11T05:08:35.238Z,-4.40
2018-04-11T05:11:01.921Z,-4.10
2018-04-11T05:13:28.758Z,-3.80
2018-04-11T05:15:56.745Z,-3.10
2018-04-11T05:18:23.506Z,-1.80
2018-04-11T05:20:50.223Z,-0.60
2018-04-11T05:23:16.968Z,0.40
2018-04-11T05:25:43.816Z,1.20
2018-04-11T05:28:10.666Z,1.10
2018-04-11T05:30:37.383Z,1.60
2018-04-11T05:33:04.977Z,1.60
2018-04-11T05:35:31.836Z,1.00
2018-04-11T05:37:58.550Z,0.70
2018-04-11T05:40:25.684Z,0.20
2018-04-11T05:42:53.194Z,0.00
2018-04-11T05:45:19.936Z,-0.20
2018-04-11T05:47:48.550Z,0.10
2018-04-11T05:50:16.547Z,3.10
2018-04-11T05:52:43.951Z,4.40
2018-04-11T05:55:10.670Z,4.40
2018-04-11T05:57:38.273Z,6.00
2018-04-11T06:00:05.226Z,6.00
2018-04-11T06:02:31.970Z,6.20
2018-04-11T06:04:59.226Z,6.70
2018-04-11T06:07:25.890Z,5.90
2018-04-11T06:09:52.562Z,6.00
2018-04-11T06:12:20.020Z,8.40
2018-04-11T06:14:46.700Z,8.40
2018-04-11T06:17:13.389Z,9.90
2018-04-11T06:19:40.056Z,12.00
2018-04-11T06:22:07.524Z,15.50
2018-04-11T06:24:34.960Z,15.20
2018-04-11T06:27:01.867Z,15.10
2018-04-11T06:29:28.632Z,16.60
2018-04-11T06:31:55.380Z,17.50
2018-04-11T06:34:23.663Z,19.10
2018-04-11T06:36:50.517Z,19.10
2018-04-11T06:39:17.360Z,17.20
2018-04-11T06:41:44.386Z,15.30
2018-04-11T06:44:11.158Z,13.30
2018-04-11T06:46:37.902Z,15.50
2018-04-11T06:49:04.858Z,17.10
2018-04-11T06:51:31.517Z,13.90
2018-04-11T06:53:58.191Z,16.20
2018-04-11T06:56:24.992Z,16.80
2018-04-11T06:58:51.738Z,17.60
2018-04-11T07:01:18.483Z,15.60
2018-04-11T07:03:45.460Z,13.70
2018-04-11T07:06:12.322Z,13.10
2018-04-11T07:08:39.143Z,11.90
2018-04-11T07:11:05.983Z,13.30
2018-04-11T07:13:32.725Z,14.60
2018-04-11T07:15:59.679Z,16.10
2018-04-11T07:18:26.352Z,15.50
2018-04-11T07:20:54.604Z,15.40
2018-04-11T07:23:21.321Z,15.30
2018-04-11T07:25:48.038Z,15.60
2018-04-11T07:28:14.727Z,15.40
2018-04-11T07:30:41.480Z,15.00
2018-04-11T07:33:08.230Z,16.10
2018-04-11T07:35:34.976Z,17.60
2018-04-11T07:38:01.723Z,14.70
2018-04-11T07:40:29.290Z,15.60
2018-04-11T07:42:56.003Z,15.50
2018-04-11T07:45:23.711Z,14.60
2018-04-11T07:47:50.450Z,14.60
2018-04-11T07:50:17.193Z,13.10
2018-04-11T07:52:43.940Z,13.80
2018-04-11T07:55:10.688Z,15.50
2018-04-11T07:57:37.431Z,17.70
2018-04-11T08:00:04.180Z,19.00
2018-04-11T08:02:30.925Z,17.40
2018-04-11T08:04:57.773Z,17.20
2018-04-11T08:07:24.520Z,16.50
2018-04-11T08:09:51.267Z,17.30
2018-04-11T08:12:18.218Z,15.60
2018-04-11T08:14:44.963Z,17.70
2018-04-11T08:17:12.529Z,16.10
2018-04-11T08:19:39.388Z,13.90
2018-04-11T08:22:06.129Z,12.70
2018-04-11T08:24:32.973Z,12.70
2018-04-11T08:26:59.819Z,12.10
2018-04-11T08:29:26.668Z,11.40
2018-04-11T08:31:53.518Z,10.20
2018-04-11T08:34:20.265Z,9.70
2018-04-11T08:36:47.214Z,10.50
2018-04-11T08:39:13.896Z,12.80
2018-04-11T08:41:41.527Z,14.00
2018-04-11T08:44:08.272Z,14.00
2018-04-11T08:46:35.334Z,14.90
2018-04-11T08:49:02.177Z,15.30
2018-04-11T08:51:28.921Z,15.90
2018-04-11T08:53:55.667Z,14.70
2018-04-11T08:56:22.413Z,16.10
2018-04-11T08:58:49.366Z,16.20
2018-04-11T09:01:16.113Z,15.80
2018-04-11T09:03:42.857Z,15.70
2018-04-11T09:06:09.911Z,12.60
2018-04-11T09:08:37.065Z,12.60
2018-04-11T09:11:04.193Z,12.10
2018-04-11T09:13:31.589Z,11.80
2018-04-11T09:15:58.327Z,11.80
2018-04-11T09:18:25.002Z,11.90
2018-04-11T09:20:51.971Z,11.90
2018-04-11T09:23:18.671Z,12.30
2018-04-11T09:25:45.518Z,11.20
2018-04-11T09:28:12.269Z,10.60
2018-04-11T09:30:39.269Z,10.20
2018-04-11T09:33:06.063Z,9.10
2018-04-11T09:35:32.809Z,9.40
2018-04-11T09:38:00.785Z,9.60
2018-04-11T09:40:27.838Z,9.60
2018-04-11T09:42:54.788Z,10.10
2018-04-11T09:45:21.536Z,9.50
2018-04-11T09:47:48.281Z,9.40
2018-04-11T09:50:15.030Z,10.00
2018-04-11T09:52:41.879Z,9.60
2018-04-11T09:55:08.568Z,9.60
2018-04-11T09:57:35.269Z,9.30
2018-04-11T10:00:02.428Z,8.90
2018-04-11T10:02:29.268Z,9.10
2018-04-11T10:04:56.015Z,8.80
2018-04-11T10:07:22.864Z,8.60
2018-04-11T10:09:49.610Z,8.70
2018-04-11T10:12:16.359Z,8.80
2018-04-11T10:14:43.112Z,9.50
2018-04-11T10:17:09.852Z,9.20
2018-04-11T10:19:36.596Z,9.00
2018-04-11T10:22:03.340Z,9.10
2018-04-11T10:24:30.064Z,9.50
2018-04-11T10:26:57.962Z,9.30
2018-04-11T10:29:24.706Z,9.30
2018-04-11T10:31:51.465Z,9.20
2018-04-11T10:34:18.300Z,9.30
2018-04-11T10:36:45.252Z,9.20
2018-04-11T10:39:11.997Z,9.00
2018-04-11T10:41:38.743Z,9.10
2018-04-11T10:44:05.489Z,9.50
2018-04-11T10:46:32.236Z,9.90
2018-04-11T10:48:59.085Z,9.40
2018-04-11T10:51:25.835Z,9.70
2018-04-11T10:53:52.577Z,10.00
2018-04-11T10:56:19.427Z,9.80
2018-04-11T10:58:46.071Z,9.70
2018-04-11T11:01:12.816Z,9.50
2018-04-11T11:03:39.668Z,9.40
2018-04-11T11:06:06.414Z,9.40
2018-04-11T11:08:33.262Z,9.30
2018-04-11T11:10:59.906Z,9.10
2018-04-11T11:13:26.935Z,9.30
2018-04-11T11:15:54.362Z,9.20
2018-04-11T11:18:21.077Z,9.20
2018-04-11T11:21:04.599Z,9.30
2018-04-11T11:23:31.323Z,9.30
2018-04-11T11:25:58.905Z,9.50
2018-04-11T11:28:25.651Z,9.50
2018-04-11T11:30:52.422Z,9.50
2018-04-11T11:33:19.144Z,9.60
2018-04-11T11:35:45.891Z,9.60
2018-04-11T11:38:12.637Z,9.60
2018-04-11T11:40:39.427Z,9.20
2018-04-11T11:43:06.537Z,8.90
2018-04-11T11:45:33.489Z,8.70
2018-04-11T11:48:00.234Z,8.50
2018-04-11T11:50:26.984Z,8.40
2018-04-11T11:52:53.726Z,8.70
2018-04-11T11:55:20.679Z,8.90
2018-04-11T11:57:47.361Z,8.70
2018-04-11T12:00:14.171Z,8.60
2018-04-11T12:02:40.916Z,8.50
2018-04-11T12:05:07.664Z,8.70
2018-04-11T12:07:34.409Z,8.90
2018-04-11T12:10:01.083Z,9.00
2018-04-11T12:12:35.064Z,8.80
2018-04-11T12:15:01.913Z,8.90
2018-04-11T12:17:28.659Z,9.30
2018-04-11T12:19:55.405Z,9.20
2018-04-11T12:22:22.256Z,9.50
2018-04-11T12:24:49.107Z,9.20
2018-04-11T12:27:15.850Z,9.40
2018-04-11T12:29:43.415Z,9.20
2018-04-11T12:32:10.239Z,9.30
2018-04-11T12:34:37.617Z,9.00
2018-04-11T12:37:04.676Z,8.90
2018-04-11T12:39:31.423Z,8.80
2018-04-11T12:41:58.170Z,8.50
2018-04-11T12:44:25.026Z,8.50
2018-04-11T12:46:51.968Z,8.30
2018-04-11T12:49:18.747Z,8.20
2018-04-11T12:51:45.671Z,8.20
2018-04-11T12:54:12.416Z,8.30
2018-04-11T12:56:39.977Z,8.20
2018-04-11T12:59:07.495Z,8.50
2018-04-11T13:01:35.209Z,8.40
2018-04-11T13:04:02.065Z,8.40
2018-04-11T13:06:28.811Z,8.20
2018-04-11T13:08:55.652Z,8.10
2018-04-11T13:11:22.605Z,8.40
2018-04-11T13:13:56.616Z,8.40
2018-04-11T13:16:23.363Z,8.50
2018-04-11T13:18:50.043Z,8.80
2018-04-11T13:21:17.980Z,8.40
2018-04-11T13:23:44.725Z,8.40
2018-04-11T13:26:11.578Z,8.50
2018-04-11T13:28:38.323Z,8.10
2018-04-11T13:31:05.247Z,8.30
2018-04-11T13:33:32.127Z,8.30
2018-04-11T13:35:58.802Z,8.40
2018-04-11T13:38:26.228Z,8.40
2018-04-11T13:40:52.973Z,8.40
2018-04-11T13:43:19.720Z,8.10
2018-04-11T13:45:46.465Z,8.10
2018-04-11T13:48:13.935Z,8.40
2018-04-11T13:50:40.675Z,8.20
2018-04-11T13:53:07.550Z,8.20
2018-04-11T13:55:36.300Z,8.20
2018-04-11T13:58:03.883Z,8.10
2018-04-11T14:00:30.536Z,8.00
2018-04-11T14:02:57.242Z,8.20
2018-04-11T14:05:24.222Z,8.20
2018-04-11T14:07:50.968Z,8.10
2018-04-11T14:10:17.920Z,8.10
2018-04-11T14:12:44.665Z,8.20
2018-04-11T14:15:11.412Z,8.10
2018-04-11T14:17:38.531Z,8.00
2018-04-11T14:20:06.180Z,8.10
2018-04-11T14:22:32.807Z,8.10
2018-04-11T14:24:59.934Z,8.00
2018-04-11T14:27:27.396Z,7.80
2018-04-11T14:29:54.385Z,7.70
2018-04-11T14:32:21.124Z,7.60
2018-04-11T14:34:48.040Z,7.80
2018-04-11T14:37:14.788Z,7.90
2018-04-11T14:39:41.584Z,7.80
2018-04-11T14:42:09.739Z,7.70
2018-04-11T14:44:36.459Z,7.70
2018-04-11T14:47:03.298Z,7.60
2018-04-11T14:49:30.096Z,7.40
2018-04-11T14:51:56.912Z,7.40
2018-04-11T14:54:23.855Z,7.30
2018-04-11T14:56:50.704Z,7.10
2018-04-11T14:59:17.437Z,7.30
2018-04-11T15:01:44.887Z,7.20
2018-04-11T15:04:12.301Z,7.10
2018-04-11T15:06:39.020Z,7.10
2018-04-11T15:09:06.280Z,7.10
2018-04-11T15:11:40.189Z,6.90
2018-04-11T15:14:06.931Z,7.10
2018-04-11T15:16:33.779Z,7.20
2018-04-11T15:19:00.527Z,7.00
2018-04-11T15:21:27.276Z,6.90
2018-04-11T15:23:54.660Z,6.90
2018-04-11T15:26:22.402Z,6.90
2018-04-11T15:31:18.013Z,6.80
2018-04-11T15:33:45.168Z,6.70
2018-04-11T15:36:11.882Z,6.60
2018-04-11T15:38:39.788Z,6.70
2018-04-11T15:41:07.452Z,6.60
2018-04-11T15:43:34.509Z,6.60
2018-04-11T15:46:02.278Z,6.60
2018-04-11T15:48:30.931Z,6.60
2018-04-11T15:50:58.536Z,6.50
2018-04-11T15:53:25.282Z,6.30
2018-04-11T15:55:52.845Z,6.30
2018-04-11T15:58:20.309Z,6.20
2018-04-11T16:00:48.615Z,6.30
2018-04-11T16:03:16.874Z,6.40
2018-04-11T16:05:43.621Z,6.40
2018-04-11T16:08:10.681Z,6.20
2018-04-11T16:10:37.702Z,6.00
2018-04-11T16:13:05.167Z,5.80
2018-04-11T16:15:33.062Z,5.90
2018-04-11T16:17:59.797Z,5.80
2018-04-11T16:20:27.373Z,5.70
2018-04-11T16:22:54.122Z,5.60
2018-04-11T16:25:21.394Z,5.60
2018-04-11T16:27:48.741Z,5.50
2018-04-11T16:30:15.998Z,5.50
2018-04-11T16:32:44.586Z,5.60
2018-04-11T16:35:11.436Z,5.60
2018-04-11T16:37:38.491Z,5.40
2018-04-11T16:40:06.056Z,5.30
2018-04-11T16:42:33.722Z,5.20
2018-04-11T16:45:00.571Z,5.10
2018-04-11T16:47:27.629Z,5.10
2018-04-11T16:49:54.784Z,4.90
2018-04-11T16:52:23.370Z,4.70
2018-04-11T16:54:50.810Z,4.70
2018-04-11T16:57:18.665Z,4.60
2018-04-11T16:59:46.269Z,4.60
2018-04-11T17:02:13.326Z,4.50
2018-04-11T17:04:40.069Z,4.40
2018-04-11T17:07:06.919Z,4.30
2018-04-11T17:09:40.500Z,4.20
2018-04-11T17:12:08.283Z,4.00
2018-04-11T17:14:38.423Z,4.00
2018-04-11T17:17:08.953Z,4.00
2018-04-11T17:19:39.188Z,3.80
2018-04-11T17:22:20.143Z,3.80
2018-04-11T17:25:02.243Z,3.70
2018-04-11T17:28:01.564Z,3.50
2018-04-11T17:30:41.686Z,3.30
2018-04-11T17:33:14.515Z,3.30
2018-04-11T17:35:43.438Z,3.20
2018-04-11T17:38:18.143Z,2.80
2018-04-11T17:40:50.069Z,2.80
2018-04-11T17:43:21.894Z,2.20
2018-04-11T17:48:25.822Z,2.00
2018-04-11T17:50:55.339Z,1.80
2018-04-11T17:53:24.667Z,1.60
2018-04-11T17:55:54.024Z,1.40
2018-04-11T17:58:24.512Z,1.20
2018-04-11T18:00:55.045Z,1.00
2018-04-11T18:03:26.645Z,0.90
2018-04-11T18:05:57.537Z,0.60
2018-04-11T18:08:27.283Z,0.60
2018-04-11T18:10:57.857Z,0.40
2018-04-11T18:13:29.340Z,0.40
2018-04-11T18:16:00.030Z,0.20
2018-04-11T18:18:30.309Z,-0.10
2018-04-11T18:20:59.847Z,-0.10
2018-04-11T18:23:29.397Z,-0.20
2018-04-11T18:25:59.151Z,-0.50
2018-04-11T18:28:31.633Z,-0.40
2018-04-11T18:31:02.368Z,-0.60
2018-04-11T18:33:34.251Z,-0.70
2018-04-11T18:36:05.450Z,-0.80
2018-04-11T18:38:35.878Z,-1.00
2018-04-11T18:41:06.463Z,-1.00
2018-04-11T18:43:38.433Z,-1.00
2018-04-11T18:46:09.361Z,-1.10
2018-04-11T18:48:37.908Z,-1.10
2018-04-11T18:51:06.596Z,-1.20
2018-04-11T18:53:38.340Z,-1.30
2018-04-11T18:56:07.636Z,-1.30
2018-04-11T18:58:35.558Z,-1.40
2018-04-11T19:01:02.716Z,-1.50
2018-04-11T19:03:29.871Z,-1.60
2018-04-11T19:05:58.459Z,-1.60
2018-04-11T19:08:25.188Z,-1.70
2018-04-11T19:10:52.875Z,-1.50
2018-04-11T19:13:20.158Z,-1.50
2018-04-11T19:15:47.064Z,-1.60
2018-04-11T19:18:15.271Z,-1.60
2018-04-11T19:20:42.114Z,-1.60
2018-04-11T19:23:08.859Z,-1.70
2018-04-11T19:25:35.583Z,-1.80
2018-04-11T19:28:03.176Z,-2.00
2018-04-11T19:30:29.918Z,-2.00
2018-04-11T19:32:58.222Z,-2.10
2018-04-11T19:35:25.396Z,-2.20
2018-04-11T19:37:52.428Z,-2.30
2018-04-11T19:40:19.862Z,-2.30
2018-04-11T19:42:46.558Z,-2.40
2018-04-11T19:45:13.483Z,-2.40
2018-04-11T19:47:41.033Z,-2.50
2018-04-11T19:50:07.891Z,-2.50
2018-04-11T19:52:35.142Z,-2.60
2018-04-11T19:55:01.900Z,-2.60
2018-04-11T19:57:28.582Z,-2.60
2018-04-11T19:59:55.790Z,-2.60
2018-04-11T20:02:22.536Z,-2.60
2018-04-11T20:04:49.695Z,-2.60
2018-04-11T20:07:17.056Z,-2.60
2018-04-11T20:09:43.901Z,-2.70
2018-04-11T20:12:10.955Z,-2.70
2018-04-11T20:14:38.622Z,-2.90
2018-04-11T20:17:05.458Z,-2.90
2018-04-11T20:19:32.196Z,-2.90
2018-04-11T20:22:00.078Z,-2.90
2018-04-11T20:24:27.456Z,-3.00
2018-04-11T20:26:54.863Z,-2.90
2018-04-11T20:29:22.401Z,-3.00
2018-04-11T20:31:49.211Z,-3.00
2018-04-11T20:34:17.039Z,-3.10
2018-04-11T20:36:44.263Z,-3.10
2018-04-11T20:39:12.236Z,-3.10
2018-04-11T20:41:39.456Z,-3.10
2018-04-11T20:44:06.701Z,-3.20
2018-04-11T20:46:33.453Z,-3.20
2018-04-11T20:49:00.914Z,-3.30
2018-04-11T20:51:27.554Z,-3.30
2018-04-11T20:53:54.347Z,-3.30
2018-04-11T20:56:21.109Z,-3.40
2018-04-11T20:58:47.845Z,-3.40
2018-04-11T21:01:21.652Z,-3.50
2018-04-11T21:03:48.600Z,-3.50
2018-04-11T21:06:15.452Z,-3.50
2018-04-11T21:08:42.926Z,-3.60
2018-04-11T21:11:10.580Z,-3.60
2018-04-11T21:13:37.328Z,-3.70
2018-04-11T21:16:04.348Z,-3.70
2018-04-11T21:18:31.945Z,-3.70
2018-04-11T21:20:59.002Z,-3.70
2018-04-11T21:23:25.849Z,-3.70
2018-04-11T21:25:52.550Z,-3.80
2018-04-11T21:28:20.055Z,-3.80
2018-04-11T21:30:47.036Z,-3.90
2018-04-11T21:33:13.757Z,-3.90
2018-04-11T21:35:40.501Z,-4.00
2018-04-11T21:38:08.885Z,-4.00
2018-04-11T21:40:36.131Z,-4.00
2018-04-11T21:43:03.716Z,-4.10
2018-04-11T21:45:32.374Z,-4.00
2018-04-11T21:47:59.439Z,-4.20
2018-04-11T21:50:26.900Z,-4.10
2018-04-11T21:52:54.986Z,-4.10
2018-04-11T21:55:22.559Z,-4.10
2018-04-11T21:57:49.616Z,-4.10
2018-04-11T22:00:16.566Z,-4.10
2018-04-11T22:02:43.579Z,-4.20
2018-04-11T22:05:10.672Z,-4.20
2018-04-11T22:07:37.830Z,-4.20
2018-04-11T22:10:04.512Z,-4.20
2018-04-11T22:12:31.467Z,-4.30
2018-04-11T22:14:58.581Z,-4.30
2018-04-11T22:17:25.318Z,-4.30
2018-04-11T22:19:52.073Z,-4.40
2018-04-11T22:22:19.245Z,-4.40
2018-04-11T22:24:47.411Z,-4.40
2018-04-11T22:27:14.412Z,-4.50
2018-04-11T22:29:42.269Z,-4.50
2018-04-11T22:32:09.388Z,-4.50
2018-04-11T22:34:37.465Z,-4.50
2018-04-11T22:37:04.635Z,-4.50
2018-04-11T22:39:31.566Z,-4.50
2018-04-11T22:41:58.412Z,-4.40
2018-04-11T22:44:25.319Z,-4.50
2018-04-11T22:46:52.181Z,-4.50
2018-04-11T22:49:19.495Z,-4.50
2018-04-11T22:51:46.569Z,-4.50
2018-04-11T22:54:14.203Z,-4.60
2018-04-11T22:56:40.950Z,-4.60
2018-04-11T22:59:08.104Z,-4.60
2018-04-11T23:01:35.773Z,-4.60
2018-04-11T23:04:02.825Z,-4.60
2018-04-11T23:06:29.481Z,-4.60
2018-04-11T23:08:56.473Z,-4.70
2018-04-11T23:11:23.185Z,-4.70
2018-04-11T23:13:49.868Z,-4.70
2018-04-11T23:16:16.563Z,-4.70
2018-04-11T23:18:43.356Z,-4.80
2018-04-11T23:21:10.302Z,-4.80
2018-04-11T23:23:37.453Z,-4.80
2018-04-11T23:26:04.135Z,-4.80
2018-04-11T23:28:32.036Z,-4.90
2018-04-11T23:30:58.720Z,-4.90
2018-04-11T23:33:25.354Z,-4.80
2018-04-11T23:35:52.096Z,-4.90
2018-04-11T23:38:19.049Z,-4.90
2018-04-11T23:40:46.524Z,-4.90
2018-04-11T23:43:14.308Z,-4.90
2018-04-11T23:45:40.947Z,-4.90
2018-04-11T23:48:07.949Z,-4.90
2018-04-11T23:50:34.697Z,-4.90
2018-04-11T23:53:01.448Z,-4.80
2018-04-11T23:55:28.178Z,-4.90
2018-04-11T23:57:55.651Z,-4.90
